sensor_id;sensor_type;location;lat;lon;timestamp;P1;P2;P0
63915;PMS5003;50094;51.356;-0.196;2023-02-12T00:01:45;1;0;
63915;PMS5003;50094;51.356;-0.196;2023-02-12T00:04:12;3;3;
63915;PMS5003;50094;51.356;-0.196;2023-02-12T00:06:39;1;1;
63915;PMS5003;50094;51.356;-0.196;2023-02-12T00:09:06;1;1;
63915;PMS5003;50094;51.356;-0.196;2023-02-12T00:11:32;1;1;
63915;PMS5003;50094;51.356;-0.196;2023-02-12T00:14:01;0;0;
63915;PMS5003;50094;51.356;-0.196;2023-02-12T00:16:28;3;3;
63915;PMS5003;50094;51.356;-0.196;2023-02-12T00:18:56;3;1;
63915;PMS5003;50094;51.356;-0.196;2023-02-12T00:21:23;1;1;
63915;PMS5003;50094;51.356;-0.196;2023-02-12T00:23:51;3;0;
63915;PMS5003;50094;51.356;-0.196;2023-02-12T00:26:20;3;2;
63915;PMS5003;50094;51.356;-0.196;2023-02-12T00:28:48;0;0;
63915;PMS5003;50094;51.356;-0.196;2023-02-12T00:31:16;1;1;
63915;PMS5003;50094;51.356;-0.196;2023-02-12T00:33:45;2;2;
63915;PMS5003;50094;51.356;-0.196;2023-02-12T00:36:13;2;2;
63915;PMS5003;50094;51.356;-0.196;2023-02-12T00:38:42;4;2;
63915;PMS5003;50094;51.356;-0.196;2023-02-12T00:41:10;2;2;
63915;PMS5003;50094;51.356;-0.196;2023-02-12T00:43:37;2;1;
63915;PMS5003;50094;51.356;-0.196;2023-02-12T00:46:05;2;2;
63915;PMS5003;50094;51.356;-0.196;2023-02-12T00:48:32;4;3;
63915;PMS5003;50094;51.356;-0.196;2023-02-12T00:50:59;1;1;
63915;PMS5003;50094;51.356;-0.196;2023-02-12T00:53:28;3;3;
63915;PMS5003;50094;51.356;-0.196;2023-02-12T00:55:55;2;2;
63915;PMS5003;50094;51.356;-0.196;2023-02-12T00:58:23;3;3;
63915;PMS5003;50094;51.356;-0.196;2023-02-12T01:00:51;5;2;
63915;PMS5003;50094;51.356;-0.196;2023-02-12T01:03:18;4;4;
63915;PMS5003;50094;51.356;-0.196;2023-02-12T01:05:45;3;2;
63915;PMS5003;50094;51.356;-0.196;2023-02-12T01:08:14;2;2;
63915;PMS5003;50094;51.356;-0.196;2023-02-12T01:10:42;2;2;
63915;PMS5003;50094;51.356;-0.196;2023-02-12T01:13:10;2;2;
63915;PMS5003;50094;51.356;-0.196;2023-02-12T01:15:38;1;1;
63915;PMS5003;50094;51.356;-0.196;2023-02-12T01:18:06;3;3;
63915;PMS5003;50094;51.356;-0.196;2023-02-12T01:20:33;2;2;
63915;PMS5003;50094;51.356;-0.196;2023-02-12T01:23:00;2;2;
63915;PMS5003;50094;51.356;-0.196;2023-02-12T01:25:28;2;2;
63915;PMS5003;50094;51.356;-0.196;2023-02-12T01:27:55;3;3;
63915;PMS5003;50094;51.356;-0.196;2023-02-12T01:30:22;2;1;
63915;PMS5003;50094;51.356;-0.196;2023-02-12T01:32:49;2;2;
63915;PMS5003;50094;51.356;-0.196;2023-02-12T01:35:16;2;0;
63915;PMS5003;50094;51.356;-0.196;2023-02-12T01:37:43;0;0;
63915;PMS5003;50094;51.356;-0.196;2023-02-12T01:40:11;3;3;
63915;PMS5003;50094;51.356;-0.196;2023-02-12T01:42:43;2;2;
63915;PMS5003;50094;51.356;-0.196;2023-02-12T01:45:28;3;2;
63915;PMS5003;50094;51.356;-0.196;2023-02-12T01:48:13;3;3;
63915;PMS5003;50094;51.356;-0.196;2023-02-12T01:50:44;3;2;
63915;PMS5003;50094;51.356;-0.196;2023-02-12T01:53:14;3;2;
63915;PMS5003;50094;51.356;-0.196;2023-02-12T01:55:45;2;1;
63915;PMS5003;50094;51.356;-0.196;2023-02-12T01:58:14;4;4;
63915;PMS5003;50094;51.356;-0.196;2023-02-12T02:00:42;3;2;
63915;PMS5003;50094;51.356;-0.196;2023-02-12T02:03:10;1;1;
63915;PMS5003;50094;51.356;-0.196;2023-02-12T02:05:40;1;1;
63915;PMS5003;50094;51.356;-0.196;2023-02-12T02:08:12;1;1;
63915;PMS5003;50094;51.356;-0.196;2023-02-12T02:10:39;1;0;
63915;PMS5003;50094;51.356;-0.196;2023-02-12T02:13:06;3;3;
63915;PMS5003;50094;51.356;-0.196;2023-02-12T02:15:34;2;2;
63915;PMS5003;50094;51.356;-0.196;2023-02-12T02:18:05;1;1;
63915;PMS5003;50094;51.356;-0.196;2023-02-12T02:20:42;1;1;
63915;PMS5003;50094;51.356;-0.196;2023-02-12T02:23:29;1;1;
63915;PMS5003;50094;51.356;-0.196;2023-02-12T02:26:20;2;2;
63915;PMS5003;50094;51.356;-0.196;2023-02-12T02:29:03;4;2;
63915;PMS5003;50094;51.356;-0.196;2023-02-12T02:31:46;2;2;
63915;PMS5003;50094;51.356;-0.196;2023-02-12T02:34:18;1;1;
63915;PMS5003;50094;51.356;-0.196;2023-02-12T02:36:53;2;1;
63915;PMS5003;50094;51.356;-0.196;2023-02-12T02:39:28;2;2;
63915;PMS5003;50094;51.356;-0.196;2023-02-12T02:42:03;1;1;
63915;PMS5003;50094;51.356;-0.196;2023-02-12T02:44:36;1;1;
63915;PMS5003;50094;51.356;-0.196;2023-02-12T02:47:10;3;2;
63915;PMS5003;50094;51.356;-0.196;2023-02-12T02:49:43;2;2;
63915;PMS5003;50094;51.356;-0.196;2023-02-12T02:52:17;1;1;
63915;PMS5003;50094;51.356;-0.196;2023-02-12T02:54:49;1;0;
63915;PMS5003;50094;51.356;-0.196;2023-02-12T02:57:23;3;2;
63915;PMS5003;50094;51.356;-0.196;2023-02-12T02:59:54;1;1;
63915;PMS5003;50094;51.356;-0.196;2023-02-12T03:02:26;1;1;
63915;PMS5003;50094;51.356;-0.196;2023-02-12T03:04:58;2;2;
63915;PMS5003;50094;51.356;-0.196;2023-02-12T03:07:29;1;1;
63915;PMS5003;50094;51.356;-0.196;2023-02-12T03:10:01;2;2;
63915;PMS5003;50094;51.356;-0.196;2023-02-12T03:12:35;2;1;
63915;PMS5003;50094;51.356;-0.196;2023-02-12T03:15:08;2;1;
63915;PMS5003;50094;51.356;-0.196;2023-02-12T03:17:39;2;1;
63915;PMS5003;50094;51.356;-0.196;2023-02-12T03:20:13;3;2;
63915;PMS5003;50094;51.356;-0.196;2023-02-12T03:22:44;1;1;
63915;PMS5003;50094;51.356;-0.196;2023-02-12T03:25:15;2;2;
63915;PMS5003;50094;51.356;-0.196;2023-02-12T03:27:48;1;0;
63915;PMS5003;50094;51.356;-0.196;2023-02-12T03:30:22;2;1;
63915;PMS5003;50094;51.356;-0.196;2023-02-12T03:32:57;3;2;
63915;PMS5003;50094;51.356;-0.196;2023-02-12T03:35:33;1;1;
63915;PMS5003;50094;51.356;-0.196;2023-02-12T03:38:08;4;1;
63915;PMS5003;50094;51.356;-0.196;2023-02-12T03:40:43;3;1;
63915;PMS5003;50094;51.356;-0.196;2023-02-12T03:43:17;1;1;
63915;PMS5003;50094;51.356;-0.196;2023-02-12T03:45:50;3;2;
63915;PMS5003;50094;51.356;-0.196;2023-02-12T03:48:24;3;1;
63915;PMS5003;50094;51.356;-0.196;2023-02-12T03:50:56;0;0;
63915;PMS5003;50094;51.356;-0.196;2023-02-12T03:53:29;2;1;
63915;PMS5003;50094;51.356;-0.196;2023-02-12T03:55:59;0;0;
63915;PMS5003;50094;51.356;-0.196;2023-02-12T03:58:31;1;0;
63915;PMS5003;50094;51.356;-0.196;2023-02-12T04:01:01;3;1;
63915;PMS5003;50094;51.356;-0.196;2023-02-12T04:03:28;2;1;
63915;PMS5003;50094;51.356;-0.196;2023-02-12T04:05:57;0;0;
63915;PMS5003;50094;51.356;-0.196;2023-02-12T04:08:23;2;2;
63915;PMS5003;50094;51.356;-0.196;2023-02-12T04:10:55;1;1;
63915;PMS5003;50094;51.356;-0.196;2023-02-12T04:13:35;4;2;
63915;PMS5003;50094;51.356;-0.196;2023-02-12T04:16:12;1;1;
63915;PMS5003;50094;51.356;-0.196;2023-02-12T04:18:47;3;3;
63915;PMS5003;50094;51.356;-0.196;2023-02-12T04:21:19;3;3;
63915;PMS5003;50094;51.356;-0.196;2023-02-12T04:24:00;3;3;
63915;PMS5003;50094;51.356;-0.196;2023-02-12T04:26:33;3;3;
63915;PMS5003;50094;51.356;-0.196;2023-02-12T04:29:08;2;2;
63915;PMS5003;50094;51.356;-0.196;2023-02-12T04:31:43;3;3;
63915;PMS5003;50094;51.356;-0.196;2023-02-12T04:34:16;2;2;
63915;PMS5003;50094;51.356;-0.196;2023-02-12T04:36:50;3;3;
63915;PMS5003;50094;51.356;-0.196;2023-02-12T04:39:23;5;5;
63915;PMS5003;50094;51.356;-0.196;2023-02-12T04:41:56;4;4;
63915;PMS5003;50094;51.356;-0.196;2023-02-12T04:44:25;4;4;
63915;PMS5003;50094;51.356;-0.196;2023-02-12T04:46:55;5;4;
63915;PMS5003;50094;51.356;-0.196;2023-02-12T04:49:23;4;4;
63915;PMS5003;50094;51.356;-0.196;2023-02-12T04:51:51;7;5;
63915;PMS5003;50094;51.356;-0.196;2023-02-12T04:54:19;4;4;
63915;PMS5003;50094;51.356;-0.196;2023-02-12T04:56:47;8;6;
63915;PMS5003;50094;51.356;-0.196;2023-02-12T04:59:15;5;4;
63915;PMS5003;50094;51.356;-0.196;2023-02-12T05:01:42;6;4;
63915;PMS5003;50094;51.356;-0.196;2023-02-12T05:04:10;7;5;
63915;PMS5003;50094;51.356;-0.196;2023-02-12T05:06:39;7;5;
63915;PMS5003;50094;51.356;-0.196;2023-02-12T05:09:08;3;3;
63915;PMS5003;50094;51.356;-0.196;2023-02-12T05:11:39;7;4;
63915;PMS5003;50094;51.356;-0.196;2023-02-12T05:14:07;4;4;
63915;PMS5003;50094;51.356;-0.196;2023-02-12T05:16:35;5;3;
63915;PMS5003;50094;51.356;-0.196;2023-02-12T05:19:02;6;4;
63915;PMS5003;50094;51.356;-0.196;2023-02-12T05:21:34;5;5;
63915;PMS5003;50094;51.356;-0.196;2023-02-12T05:24:03;5;5;
63915;PMS5003;50094;51.356;-0.196;2023-02-12T05:26:31;7;6;
63915;PMS5003;50094;51.356;-0.196;2023-02-12T05:28:58;8;6;
63915;PMS5003;50094;51.356;-0.196;2023-02-12T05:31:25;8;7;
63915;PMS5003;50094;51.356;-0.196;2023-02-12T05:33:53;7;7;
63915;PMS5003;50094;51.356;-0.196;2023-02-12T05:36:21;7;7;
63915;PMS5003;50094;51.356;-0.196;2023-02-12T05:38:50;7;7;
63915;PMS5003;50094;51.356;-0.196;2023-02-12T05:41:24;7;6;
63915;PMS5003;50094;51.356;-0.196;2023-02-12T05:43:52;7;7;
63915;PMS5003;50094;51.356;-0.196;2023-02-12T05:46:20;9;7;
63915;PMS5003;50094;51.356;-0.196;2023-02-12T05:48:47;7;7;
63915;PMS5003;50094;51.356;-0.196;2023-02-12T05:51:15;8;8;
63915;PMS5003;50094;51.356;-0.196;2023-02-12T05:53:45;10;8;
63915;PMS5003;50094;51.356;-0.196;2023-02-12T05:56:13;7;7;
63915;PMS5003;50094;51.356;-0.196;2023-02-12T05:58:42;12;8;
63915;PMS5003;50094;51.356;-0.196;2023-02-12T06:01:12;8;8;
63915;PMS5003;50094;51.356;-0.196;2023-02-12T06:03:41;11;9;
63915;PMS5003;50094;51.356;-0.196;2023-02-12T06:06:09;7;7;
63915;PMS5003;50094;51.356;-0.196;2023-02-12T06:08:37;7;5;
63915;PMS5003;50094;51.356;-0.196;2023-02-12T06:11:05;5;5;
63915;PMS5003;50094;51.356;-0.196;2023-02-12T06:13:36;4;3;
63915;PMS5003;50094;51.356;-0.196;2023-02-12T06:16:03;1;1;
63915;PMS5003;50094;51.356;-0.196;2023-02-12T06:18:31;4;1;
63915;PMS5003;50094;51.356;-0.196;2023-02-12T06:21:02;4;1;
63915;PMS5003;50094;51.356;-0.196;2023-02-12T06:23:29;2;1;
63915;PMS5003;50094;51.356;-0.196;2023-02-12T06:25:56;2;2;
63915;PMS5003;50094;51.356;-0.196;2023-02-12T06:28:23;4;1;
63915;PMS5003;50094;51.356;-0.196;2023-02-12T06:30:50;4;1;
63915;PMS5003;50094;51.356;-0.196;2023-02-12T06:33:18;1;1;
63915;PMS5003;50094;51.356;-0.196;2023-02-12T06:35:46;4;2;
63915;PMS5003;50094;51.356;-0.196;2023-02-12T06:38:13;1;1;
63915;PMS5003;50094;51.356;-0.196;2023-02-12T06:40:40;4;2;
63915;PMS5003;50094;51.356;-0.196;2023-02-12T06:43:06;3;2;
63915;PMS5003;50094;51.356;-0.196;2023-02-12T06:45:34;3;0;
63915;PMS5003;50094;51.356;-0.196;2023-02-12T06:48:02;3;1;
63915;PMS5003;50094;51.356;-0.196;2023-02-12T06:50:30;2;1;
63915;PMS5003;50094;51.356;-0.196;2023-02-12T06:52:57;5;3;
63915;PMS5003;50094;51.356;-0.196;2023-02-12T06:55:28;2;1;
63915;PMS5003;50094;51.356;-0.196;2023-02-12T06:57:55;1;1;
63915;PMS5003;50094;51.356;-0.196;2023-02-12T07:00:23;1;1;
63915;PMS5003;50094;51.356;-0.196;2023-02-12T07:02:52;1;1;
63915;PMS5003;50094;51.356;-0.196;2023-02-12T07:05:20;1;1;
63915;PMS5003;50094;51.356;-0.196;2023-02-12T07:07:47;2;2;
63915;PMS5003;50094;51.356;-0.196;2023-02-12T07:10:20;2;2;
63915;PMS5003;50094;51.356;-0.196;2023-02-12T07:12:47;2;2;
63915;PMS5003;50094;51.356;-0.196;2023-02-12T07:15:14;1;1;
63915;PMS5003;50094;51.356;-0.196;2023-02-12T07:17:42;3;3;
63915;PMS5003;50094;51.356;-0.196;2023-02-12T07:20:09;1;1;
63915;PMS5003;50094;51.356;-0.196;2023-02-12T07:22:36;1;1;
63915;PMS5003;50094;51.356;-0.196;2023-02-12T07:25:03;4;3;
63915;PMS5003;50094;51.356;-0.196;2023-02-12T07:27:35;2;2;
63915;PMS5003;50094;51.356;-0.196;2023-02-12T07:30:03;1;1;
63915;PMS5003;50094;51.356;-0.196;2023-02-12T07:32:32;1;1;
63915;PMS5003;50094;51.356;-0.196;2023-02-12T07:34:59;2;2;
63915;PMS5003;50094;51.356;-0.196;2023-02-12T07:37:27;2;2;
63915;PMS5003;50094;51.356;-0.196;2023-02-12T07:39:55;0;0;
63915;PMS5003;50094;51.356;-0.196;2023-02-12T07:42:22;0;0;
63915;PMS5003;50094;51.356;-0.196;2023-02-12T07:44:48;1;1;
63915;PMS5003;50094;51.356;-0.196;2023-02-12T07:47:15;4;2;
63915;PMS5003;50094;51.356;-0.196;2023-02-12T07:49:42;4;2;
63915;PMS5003;50094;51.356;-0.196;2023-02-12T07:52:09;2;2;
63915;PMS5003;50094;51.356;-0.196;2023-02-12T07:54:36;2;2;
63915;PMS5003;50094;51.356;-0.196;2023-02-12T07:57:03;3;1;
63915;PMS5003;50094;51.356;-0.196;2023-02-12T07:59:30;1;1;
63915;PMS5003;50094;51.356;-0.196;2023-02-12T08:01:57;5;5;
63915;PMS5003;50094;51.356;-0.196;2023-02-12T08:04:24;3;3;
63915;PMS5003;50094;51.356;-0.196;2023-02-12T08:06:53;2;2;
63915;PMS5003;50094;51.356;-0.196;2023-02-12T08:09:22;3;1;
63915;PMS5003;50094;51.356;-0.196;2023-02-12T08:11:51;0;0;
63915;PMS5003;50094;51.356;-0.196;2023-02-12T08:14:19;2;2;
63915;PMS5003;50094;51.356;-0.196;2023-02-12T08:16:48;2;1;
63915;PMS5003;50094;51.356;-0.196;2023-02-12T08:19:16;5;1;
63915;PMS5003;50094;51.356;-0.196;2023-02-12T08:21:44;1;1;
63915;PMS5003;50094;51.356;-0.196;2023-02-12T08:24:11;1;1;
63915;PMS5003;50094;51.356;-0.196;2023-02-12T08:26:38;2;2;
63915;PMS5003;50094;51.356;-0.196;2023-02-12T08:29:06;5;2;
63915;PMS5003;50094;51.356;-0.196;2023-02-12T08:31:35;0;0;
63915;PMS5003;50094;51.356;-0.196;2023-02-12T08:34:04;2;0;
63915;PMS5003;50094;51.356;-0.196;2023-02-12T08:36:35;1;1;
63915;PMS5003;50094;51.356;-0.196;2023-02-12T08:39:04;0;0;
63915;PMS5003;50094;51.356;-0.196;2023-02-12T08:41:32;0;0;
63915;PMS5003;50094;51.356;-0.196;2023-02-12T08:44:00;0;0;
63915;PMS5003;50094;51.356;-0.196;2023-02-12T08:46:30;1;0;
63915;PMS5003;50094;51.356;-0.196;2023-02-12T08:49:00;1;1;
63915;PMS5003;50094;51.356;-0.196;2023-02-12T08:51:30;2;2;
63915;PMS5003;50094;51.356;-0.196;2023-02-12T08:53:59;1;1;
63915;PMS5003;50094;51.356;-0.196;2023-02-12T08:56:28;0;0;
63915;PMS5003;50094;51.356;-0.196;2023-02-12T08:58:58;3;2;
63915;PMS5003;50094;51.356;-0.196;2023-02-12T09:01:27;2;1;
63915;PMS5003;50094;51.356;-0.196;2023-02-12T09:03:55;0;0;
63915;PMS5003;50094;51.356;-0.196;2023-02-12T09:06:23;2;1;
63915;PMS5003;50094;51.356;-0.196;2023-02-12T09:08:52;1;1;
63915;PMS5003;50094;51.356;-0.196;2023-02-12T09:11:21;2;1;
63915;PMS5003;50094;51.356;-0.196;2023-02-12T09:13:50;1;1;
63915;PMS5003;50094;51.356;-0.196;2023-02-12T09:16:18;0;0;
63915;PMS5003;50094;51.356;-0.196;2023-02-12T09:18:45;1;0;
63915;PMS5003;50094;51.356;-0.196;2023-02-12T09:21:13;2;1;
63915;PMS5003;50094;51.356;-0.196;2023-02-12T09:23:41;2;2;
63915;PMS5003;50094;51.356;-0.196;2023-02-12T09:26:10;1;1;
63915;PMS5003;50094;51.356;-0.196;2023-02-12T09:28:40;0;0;
63915;PMS5003;50094;51.356;-0.196;2023-02-12T09:31:08;1;1;
63915;PMS5003;50094;51.356;-0.196;2023-02-12T09:33:37;0;0;
63915;PMS5003;50094;51.356;-0.196;2023-02-12T09:36:05;1;1;
63915;PMS5003;50094;51.356;-0.196;2023-02-12T09:38:34;1;1;
63915;PMS5003;50094;51.356;-0.196;2023-02-12T09:41:07;0;0;
63915;PMS5003;50094;51.356;-0.196;2023-02-12T09:43:47;2;0;
63915;PMS5003;50094;51.356;-0.196;2023-02-12T09:46:26;2;2;
63915;PMS5003;50094;51.356;-0.196;2023-02-12T09:48:57;0;0;
63915;PMS5003;50094;51.356;-0.196;2023-02-12T09:51:33;1;1;
63915;PMS5003;50094;51.356;-0.196;2023-02-12T09:54:02;0;0;
63915;PMS5003;50094;51.356;-0.196;2023-02-12T09:56:32;0;0;
63915;PMS5003;50094;51.356;-0.196;2023-02-12T09:59:03;1;0;
63915;PMS5003;50094;51.356;-0.196;2023-02-12T10:01:32;1;1;
63915;PMS5003;50094;51.356;-0.196;2023-02-12T10:04:01;1;1;
63915;PMS5003;50094;51.356;-0.196;2023-02-12T10:06:32;1;1;
63915;PMS5003;50094;51.356;-0.196;2023-02-12T10:09:07;1;1;
63915;PMS5003;50094;51.356;-0.196;2023-02-12T10:11:52;1;1;
63915;PMS5003;50094;51.356;-0.196;2023-02-12T10:14:30;1;1;
63915;PMS5003;50094;51.356;-0.196;2023-02-12T10:17:06;1;1;
63915;PMS5003;50094;51.356;-0.196;2023-02-12T10:19:46;0;0;
63915;PMS5003;50094;51.356;-0.196;2023-02-12T10:22:29;0;0;
63915;PMS5003;50094;51.356;-0.196;2023-02-12T10:25:08;1;1;
63915;PMS5003;50094;51.356;-0.196;2023-02-12T10:27:48;1;1;
63915;PMS5003;50094;51.356;-0.196;2023-02-12T10:30:19;3;2;
63915;PMS5003;50094;51.356;-0.196;2023-02-12T10:32:49;1;0;
63915;PMS5003;50094;51.356;-0.196;2023-02-12T10:35:20;1;1;
63915;PMS5003;50094;51.356;-0.196;2023-02-12T10:37:50;1;1;
63915;PMS5003;50094;51.356;-0.196;2023-02-12T10:40:23;1;1;
63915;PMS5003;50094;51.356;-0.196;2023-02-12T10:42:55;0;0;
63915;PMS5003;50094;51.356;-0.196;2023-02-12T10:45:24;0;0;
63915;PMS5003;50094;51.356;-0.196;2023-02-12T10:48:02;0;0;
63915;PMS5003;50094;51.356;-0.196;2023-02-12T10:50:38;2;1;
63915;PMS5003;50094;51.356;-0.196;2023-02-12T10:53:12;4;2;
63915;PMS5003;50094;51.356;-0.196;2023-02-12T10:55:46;1;1;
63915;PMS5003;50094;51.356;-0.196;2023-02-12T10:58:17;4;2;
63915;PMS5003;50094;51.356;-0.196;2023-02-12T11:00:49;1;1;
63915;PMS5003;50094;51.356;-0.196;2023-02-12T11:03:23;2;2;
63915;PMS5003;50094;51.356;-0.196;2023-02-12T11:05:55;2;2;
63915;PMS5003;50094;51.356;-0.196;2023-02-12T11:08:29;1;1;
63915;PMS5003;50094;51.356;-0.196;2023-02-12T11:11:03;2;2;
63915;PMS5003;50094;51.356;-0.196;2023-02-12T11:13:32;3;3;
63915;PMS5003;50094;51.356;-0.196;2023-02-12T11:16:01;2;2;
63915;PMS5003;50094;51.356;-0.196;2023-02-12T11:18:29;1;1;
63915;PMS5003;50094;51.356;-0.196;2023-02-12T11:20:59;1;1;
63915;PMS5003;50094;51.356;-0.196;2023-02-12T11:23:29;2;0;
63915;PMS5003;50094;51.356;-0.196;2023-02-12T11:25:58;2;0;
63915;PMS5003;50094;51.356;-0.196;2023-02-12T11:28:27;0;0;
63915;PMS5003;50094;51.356;-0.196;2023-02-12T11:30:56;3;2;
63915;PMS5003;50094;51.356;-0.196;2023-02-12T11:33:26;0;0;
63915;PMS5003;50094;51.356;-0.196;2023-02-12T11:35:56;1;1;
63915;PMS5003;50094;51.356;-0.196;2023-02-12T11:38:28;1;1;
63915;PMS5003;50094;51.356;-0.196;2023-02-12T11:40:59;1;1;
63915;PMS5003;50094;51.356;-0.196;2023-02-12T11:43:30;0;0;
63915;PMS5003;50094;51.356;-0.196;2023-02-12T11:46:00;2;0;
63915;PMS5003;50094;51.356;-0.196;2023-02-12T11:48:29;1;0;
63915;PMS5003;50094;51.356;-0.196;2023-02-12T11:51:00;0;0;
63915;PMS5003;50094;51.356;-0.196;2023-02-12T11:53:30;1;1;
63915;PMS5003;50094;51.356;-0.196;2023-02-12T11:56:00;0;0;
63915;PMS5003;50094;51.356;-0.196;2023-02-12T11:58:30;0;0;
63915;PMS5003;50094;51.356;-0.196;2023-02-12T12:01:00;2;0;
63915;PMS5003;50094;51.356;-0.196;2023-02-12T12:03:33;1;0;
63915;PMS5003;50094;51.356;-0.196;2023-02-12T12:06:06;0;0;
63915;PMS5003;50094;51.356;-0.196;2023-02-12T12:08:48;0;0;
63915;PMS5003;50094;51.356;-0.196;2023-02-12T12:11:23;0;0;
63915;PMS5003;50094;51.356;-0.196;2023-02-12T12:13:56;0;0;
63915;PMS5003;50094;51.356;-0.196;2023-02-12T12:16:29;0;0;
63915;PMS5003;50094;51.356;-0.196;2023-02-12T12:19:03;1;0;
63915;PMS5003;50094;51.356;-0.196;2023-02-12T12:21:38;0;0;
63915;PMS5003;50094;51.356;-0.196;2023-02-12T12:24:09;2;0;
63915;PMS5003;50094;51.356;-0.196;2023-02-12T12:26:45;0;0;
63915;PMS5003;50094;51.356;-0.196;2023-02-12T12:29:21;1;1;
63915;PMS5003;50094;51.356;-0.196;2023-02-12T12:31:53;1;1;
63915;PMS5003;50094;51.356;-0.196;2023-02-12T12:34:26;0;0;
63915;PMS5003;50094;51.356;-0.196;2023-02-12T12:36:58;0;0;
63915;PMS5003;50094;51.356;-0.196;2023-02-12T12:39:39;2;0;
63915;PMS5003;50094;51.356;-0.196;2023-02-12T12:42:33;0;0;
63915;PMS5003;50094;51.356;-0.196;2023-02-12T12:45:23;0;0;
63915;PMS5003;50094;51.356;-0.196;2023-02-12T12:48:04;0;0;
63915;PMS5003;50094;51.356;-0.196;2023-02-12T12:50:46;0;0;
63915;PMS5003;50094;51.356;-0.196;2023-02-12T12:53:30;0;0;
63915;PMS5003;50094;51.356;-0.196;2023-02-12T12:56:11;0;0;
63915;PMS5003;50094;51.356;-0.196;2023-02-12T12:58:53;0;0;
63915;PMS5003;50094;51.356;-0.196;2023-02-12T13:01:41;0;0;
63915;PMS5003;50094;51.356;-0.196;2023-02-12T13:05:22;0;0;
63915;PMS5003;50094;51.356;-0.196;2023-02-12T13:09:14;0;0;
63915;PMS5003;50094;51.356;-0.196;2023-02-12T13:12:07;2;1;
63915;PMS5003;50094;51.356;-0.196;2023-02-12T13:14:50;0;0;
63915;PMS5003;50094;51.356;-0.196;2023-02-12T13:17:26;0;0;
63915;PMS5003;50094;51.356;-0.196;2023-02-12T13:20:03;0;0;
63915;PMS5003;50094;51.356;-0.196;2023-02-12T13:22:36;0;0;
63915;PMS5003;50094;51.356;-0.196;2023-02-12T13:25:15;0;0;
63915;PMS5003;50094;51.356;-0.196;2023-02-12T13:27:49;0;0;
63915;PMS5003;50094;51.356;-0.196;2023-02-12T13:30:19;1;1;
63915;PMS5003;50094;51.356;-0.196;2023-02-12T13:32:50;1;1;
63915;PMS5003;50094;51.356;-0.196;2023-02-12T13:35:28;1;1;
63915;PMS5003;50094;51.356;-0.196;2023-02-12T13:37:58;0;0;
63915;PMS5003;50094;51.356;-0.196;2023-02-12T13:40:28;1;1;
63915;PMS5003;50094;51.356;-0.196;2023-02-12T13:42:59;1;1;
63915;PMS5003;50094;51.356;-0.196;2023-02-12T13:45:37;0;0;
63915;PMS5003;50094;51.356;-0.196;2023-02-12T13:48:15;2;1;
63915;PMS5003;50094;51.356;-0.196;2023-02-12T13:50:50;2;2;
63915;PMS5003;50094;51.356;-0.196;2023-02-12T13:53:24;2;2;
63915;PMS5003;50094;51.356;-0.196;2023-02-12T13:56:00;1;1;
63915;PMS5003;50094;51.356;-0.196;2023-02-12T13:58:48;2;2;
63915;PMS5003;50094;51.356;-0.196;2023-02-12T14:01:49;1;1;
63915;PMS5003;50094;51.356;-0.196;2023-02-12T14:04:22;1;1;
63915;PMS5003;50094;51.356;-0.196;2023-02-12T14:06:54;1;1;
63915;PMS5003;50094;51.356;-0.196;2023-02-12T14:09:28;2;1;
63915;PMS5003;50094;51.356;-0.196;2023-02-12T14:11:58;1;1;
63915;PMS5003;50094;51.356;-0.196;2023-02-12T14:14:27;1;1;
63915;PMS5003;50094;51.356;-0.196;2023-02-12T14:17:07;1;1;
63915;PMS5003;50094;51.356;-0.196;2023-02-12T14:20:07;1;1;
63915;PMS5003;50094;51.356;-0.196;2023-02-12T14:23:22;2;0;
63915;PMS5003;50094;51.356;-0.196;2023-02-12T14:26:01;1;1;
63915;PMS5003;50094;51.356;-0.196;2023-02-12T14:28:31;1;1;
63915;PMS5003;50094;51.356;-0.196;2023-02-12T14:31:30;1;1;
63915;PMS5003;50094;51.356;-0.196;2023-02-12T14:34:38;1;1;
63915;PMS5003;50094;51.356;-0.196;2023-02-12T14:37:37;0;0;
63915;PMS5003;50094;51.356;-0.196;2023-02-12T14:40:51;2;2;
63915;PMS5003;50094;51.356;-0.196;2023-02-12T14:43:23;1;1;
63915;PMS5003;50094;51.356;-0.196;2023-02-12T14:45:53;1;1;
63915;PMS5003;50094;51.356;-0.196;2023-02-12T14:48:39;2;2;
63915;PMS5003;50094;51.356;-0.196;2023-02-12T14:51:16;0;0;
63915;PMS5003;50094;51.356;-0.196;2023-02-12T14:53:48;3;1;
63915;PMS5003;50094;51.356;-0.196;2023-02-12T14:56:19;2;2;
63915;PMS5003;50094;51.356;-0.196;2023-02-12T14:58:49;2;2;
63915;PMS5003;50094;51.356;-0.196;2023-02-12T15:01:22;1;1;
63915;PMS5003;50094;51.356;-0.196;2023-02-12T15:03:57;1;1;
63915;PMS5003;50094;51.356;-0.196;2023-02-12T15:06:36;1;1;
63915;PMS5003;50094;51.356;-0.196;2023-02-12T15:09:08;1;1;
63915;PMS5003;50094;51.356;-0.196;2023-02-12T15:11:39;2;2;
63915;PMS5003;50094;51.356;-0.196;2023-02-12T15:14:12;2;2;
63915;PMS5003;50094;51.356;-0.196;2023-02-12T15:16:48;2;2;
63915;PMS5003;50094;51.356;-0.196;2023-02-12T15:19:23;2;2;
63915;PMS5003;50094;51.356;-0.196;2023-02-12T15:22:02;2;2;
63915;PMS5003;50094;51.356;-0.196;2023-02-12T15:24:40;1;1;
63915;PMS5003;50094;51.356;-0.196;2023-02-12T15:27:07;1;1;
63915;PMS5003;50094;51.356;-0.196;2023-02-12T15:29:39;3;2;
63915;PMS5003;50094;51.356;-0.196;2023-02-12T15:32:13;2;2;
63915;PMS5003;50094;51.356;-0.196;2023-02-12T15:34:43;2;2;
63915;PMS5003;50094;51.356;-0.196;2023-02-12T15:37:17;3;3;
63915;PMS5003;50094;51.356;-0.196;2023-02-12T15:39:47;2;2;
63915;PMS5003;50094;51.356;-0.196;2023-02-12T15:42:22;1;1;
63915;PMS5003;50094;51.356;-0.196;2023-02-12T15:45:00;5;4;
63915;PMS5003;50094;51.356;-0.196;2023-02-12T15:47:45;3;3;
63915;PMS5003;50094;51.356;-0.196;2023-02-12T15:50:22;3;3;
63915;PMS5003;50094;51.356;-0.196;2023-02-12T15:52:50;4;4;
63915;PMS5003;50094;51.356;-0.196;2023-02-12T15:55:19;4;3;
63915;PMS5003;50094;51.356;-0.196;2023-02-12T15:57:49;4;4;
63915;PMS5003;50094;51.356;-0.196;2023-02-12T16:00:23;4;4;
63915;PMS5003;50094;51.356;-0.196;2023-02-12T16:02:53;3;3;
63915;PMS5003;50094;51.356;-0.196;2023-02-12T16:05:20;4;4;
63915;PMS5003;50094;51.356;-0.196;2023-02-12T16:07:48;3;3;
63915;PMS5003;50094;51.356;-0.196;2023-02-12T16:10:18;7;7;
63915;PMS5003;50094;51.356;-0.196;2023-02-12T16:12:47;6;6;
63915;PMS5003;50094;51.356;-0.196;2023-02-12T16:15:22;6;6;
63915;PMS5003;50094;51.356;-0.196;2023-02-12T16:17:52;8;8;
63915;PMS5003;50094;51.356;-0.196;2023-02-12T16:20:20;9;9;
63915;PMS5003;50094;51.356;-0.196;2023-02-12T16:22:49;6;6;
63915;PMS5003;50094;51.356;-0.196;2023-02-12T16:25:17;7;7;
63915;PMS5003;50094;51.356;-0.196;2023-02-12T16:27:49;9;9;
63915;PMS5003;50094;51.356;-0.196;2023-02-12T16:30:23;9;9;
63915;PMS5003;50094;51.356;-0.196;2023-02-12T16:32:54;10;10;
63915;PMS5003;50094;51.356;-0.196;2023-02-12T16:35:23;9;9;
63915;PMS5003;50094;51.356;-0.196;2023-02-12T16:37:53;9;9;
63915;PMS5003;50094;51.356;-0.196;2023-02-12T16:40:27;10;10;
63915;PMS5003;50094;51.356;-0.196;2023-02-12T16:42:59;12;12;
63915;PMS5003;50094;51.356;-0.196;2023-02-12T16:45:33;11;11;
63915;PMS5003;50094;51.356;-0.196;2023-02-12T16:48:06;13;13;
63915;PMS5003;50094;51.356;-0.196;2023-02-12T16:50:42;13;13;
63915;PMS5003;50094;51.356;-0.196;2023-02-12T16:53:33;12;12;
63915;PMS5003;50094;51.356;-0.196;2023-02-12T16:56:03;11;11;
63915;PMS5003;50094;51.356;-0.196;2023-02-12T16:58:31;11;11;
63915;PMS5003;50094;51.356;-0.196;2023-02-12T17:00:59;12;12;
63915;PMS5003;50094;51.356;-0.196;2023-02-12T17:03:28;11;11;
63915;PMS5003;50094;51.356;-0.196;2023-02-12T17:05:55;5;5;
63915;PMS5003;50094;51.356;-0.196;2023-02-12T17:08:22;4;3;